Time;durP1;ratioP1;P1;durP2;ratioP2;P2;SDS_P1;SDS_P2;PMS_P1;PMS_P2;Temp;Humidity;BMP_temperature;BMP_pressure;BME280_temperature;BME280_humidity;BME280_pressure;Samples;Min_cycle;Max_cycle;Signal;HPM_P1;HPM_P2
2022/02/27 00:00:11;;;;;;;;;;;;;;;;;;5111338;28;1918;-72
2022/02/27 00:02:40;;;;;;;;;;;;;;;;;;5111408;28;1367;-72
2022/02/27 00:05:09;;;;;;;;;;;;;;;;;;5093627;28;1146;-72
2022/02/27 00:07:35;;;;;;;;;;;;;;;;;;5093380;28;1125;-72
2022/02/27 00:10:01;;;;;;;;;;;;;;;;;;5092906;28;1659;-72
2022/02/27 00:12:28;;;;;;;;;;;;;;;;;;5111011;28;1379;-72
2022/02/27 00:14:54;;;;;;;;;;;;;;;;;;5112020;28;1086;-72
2022/02/27 00:17:20;;;;;;;;;;;;;;;;;;5111753;28;1086;-72
2022/02/27 00:19:47;;;;;;;;;;;;;;;;;;5092670;28;1972;-72
2022/02/27 00:22:15;;;;;;;;;;;;;;;;;;5092862;28;1363;-71
2022/02/27 00:24:41;;;;;;;;;;;;;;;;;;5111216;28;848;-72
2022/02/27 00:27:07;;;;;;;;;;;;;;;;;;5111162;28;1086;-72
2022/02/27 00:29:33;;;;;;;;;;;;;;;;;;5110933;28;960;-70
2022/02/27 00:32:01;;;;;;;;;;;;;;;;;;5110634;28;1297;-72
2022/02/27 00:34:27;;;;;;;;;;;;;;;;;;5092749;28;1131;-72
2022/02/27 00:36:53;;;;;;;;;;;;;;;;;;5111079;28;932;-72
2022/02/27 00:39:21;;;;;;;;;;;;;;;;;;5111005;28;1971;-72
2022/02/27 00:41:48;;;;;;;;;;;;;;;;;;5110699;28;1325;-72
2022/02/27 00:44:14;;;;;;;;;;;;;;;;;;5111175;28;912;-72
2022/02/27 00:46:42;;;;;;;;;;;;;;;;;;5092671;28;1167;-72
2022/02/27 00:49:09;;;;;;;;;;;;;;;;;;5110660;28;1102;-72
2022/02/27 00:51:35;;;;;;;;;;;;;;;;;;5092552;28;1509;-72
2022/02/27 00:54:02;;;;;;;;;;;;;;;;;;5111061;28;861;-72
2022/02/27 00:56:29;;;;;;;;;;;;;;;;;;5092653;28;1167;-72
2022/02/27 00:58:55;;;;;;;;;;;;;;;;;;5110859;28;1984;-72
2022/02/27 01:01:22;;;;;;;;;;;;;;;;;;5112592;28;1335;-71
2022/02/27 01:03:48;;;;;;;;;;;;;;;;;;5114948;28;1093;-72
2022/02/27 01:06:16;;;;;;;;;;;;;;;;;;5096563;28;1327;-72
2022/02/27 01:08:42;;;;;;;;;;;;;;;;;;5114966;28;859;-71
2022/02/27 01:11:09;;;;;;;;;;;;;;;;;;5114584;28;1098;-72
2022/02/27 01:13:38;;;;;;;;;;;;;;;;;;5096363;28;1399;-71
2022/02/27 01:16:05;;;;;;;;;;;;;;;;;;5096565;28;995;-72
2022/02/27 01:18:31;;;;;;;;;;;;;;;;;;5096437;28;1183;-72
2022/02/27 01:20:58;;;;;;;;;;;;;;;;;;5095810;28;1917;-72
2022/02/27 01:23:24;;;;;;;;;;;;;;;;;;5114758;28;1422;-72
2022/02/27 01:25:50;;;;;;;;;;;;;;;;;;5096297;28;1589;-72
2022/02/27 01:28:16;;;;;;;;;;;;;;;;;;5096413;28;1142;-72
2022/02/27 01:30:44;;;;;;;;;;;;;;;;;;5095913;28;1127;-72
2022/02/27 01:33:10;;;;;;;;;;;;;;;;;;5096311;28;1398;-72
2022/02/27 01:35:37;;;;;;;;;;;;;;;;;;5092091;28;1495;-72
2022/02/27 01:38:03;;;;;;;;;;;;;;;;;;5075615;28;1248;-73
2022/02/27 01:40:29;;;;;;;;;;;;;;;;;;5075462;28;1969;-72
2022/02/27 01:42:56;;;;;;;;;;;;;;;;;;5093881;28;1341;-72
2022/02/27 01:45:22;;;;;;;;;;;;;;;;;;5093998;28;837;-72
2022/02/27 01:47:50;;;;;;;;;;;;;;;;;;5093797;28;938;-72
2022/02/27 01:50:16;;;;;;;;;;;;;;;;;;5075269;28;1302;-72
2022/02/27 01:52:45;;;;;;;;;;;;;;;;;;5075443;28;1444;-72
2022/02/27 01:55:11;;;;;;;;;;;;;;;;;;5093466;28;755;-72
2022/02/27 01:57:40;;;;;;;;;;;;;;;;;;5093557;28;872;-73
2022/02/27 02:00:08;;;;;;;;;;;;;;;;;;5075067;28;1914;-72
2022/02/27 02:02:39;;;;;;;;;;;;;;;;;;5093694;28;1419;-72
2022/02/27 02:05:08;;;;;;;;;;;;;;;;;;5075272;28;1050;-72
2022/02/27 02:07:34;;;;;;;;;;;;;;;;;;5075158;28;986;-72
2022/02/27 02:10:01;;;;;;;;;;;;;;;;;;5075117;28;1375;-72
2022/02/27 02:12:28;;;;;;;;;;;;;;;;;;5092288;28;1297;-72
2022/02/27 02:14:54;;;;;;;;;;;;;;;;;;5074808;28;1429;-72
2022/02/27 02:17:21;;;;;;;;;;;;;;;;;;5093411;28;782;-72
2022/02/27 02:19:52;;;;;;;;;;;;;;;;;;5074810;28;1902;-72
2022/02/27 02:22:18;;;;;;;;;;;;;;;;;;5075174;28;1324;-72
2022/02/27 02:24:44;;;;;;;;;;;;;;;;;;5075038;28;1273;-73
2022/02/27 02:27:11;;;;;;;;;;;;;;;;;;5076998;28;2205;-71
2022/02/27 02:29:38;;;;;;;;;;;;;;;;;;5085062;28;2331;-71
2022/02/27 02:32:08;;;;;;;;;;;;;;;;;;5105956;28;1969;-72
2022/02/27 02:34:35;;;;;;;;;;;;;;;;;;5086289;28;1359;-72
2022/02/27 02:37:02;;;;;;;;;;;;;;;;;;5094886;28;1159;-72
2022/02/27 02:39:30;;;;;;;;;;;;;;;;;;5094712;28;1913;-71
2022/02/27 02:41:56;;;;;;;;;;;;;;;;;;5094658;28;1474;-72
2022/02/27 02:44:27;;;;;;;;;;;;;;;;;;5094982;28;1445;-72
2022/02/27 02:46:53;;;;;;;;;;;;;;;;;;5094936;28;1154;-71
2022/02/27 02:49:20;;;;;;;;;;;;;;;;;;5112920;28;1107;-72
2022/02/27 02:51:51;;;;;;;;;;;;;;;;;;5094199;28;1360;-71
2022/02/27 02:54:18;;;;;;;;;;;;;;;;;;5094577;28;1174;-72
2022/02/27 02:56:44;;;;;;;;;;;;;;;;;;5112809;28;1070;-72
2022/02/27 02:59:11;;;;;;;;;;;;;;;;;;5112954;28;1023;-73
2022/02/27 03:01:37;;;;;;;;;;;;;;;;;;5112403;28;1977;-72
2022/02/27 03:04:03;;;;;;;;;;;;;;;;;;5112956;28;1086;-73
2022/02/27 03:06:30;;;;;;;;;;;;;;;;;;5094371;28;2385;-72
2022/02/27 03:08:56;;;;;;;;;;;;;;;;;;5113026;28;1015;-73
2022/02/27 03:11:24;;;;;;;;;;;;;;;;;;5112554;28;1067;-73
2022/02/27 03:13:50;;;;;;;;;;;;;;;;;;5112426;28;886;-73
2022/02/27 03:16:17;;;;;;;;;;;;;;;;;;5112642;28;988;-73
2022/02/27 03:18:43;;;;;;;;;;;;;;;;;;5095059;28;1047;-73
2022/02/27 03:21:09;;;;;;;;;;;;;;;;;;5112690;28;2047;-73
2022/02/27 03:23:35;;;;;;;;;;;;;;;;;;5112142;28;1304;-73
2022/02/27 03:26:02;;;;;;;;;;;;;;;;;;5094214;28;1117;-73
2022/02/27 03:28:29;;;;;;;;;;;;;;;;;;5112337;28;959;-72
2022/02/27 03:30:56;;;;;;;;;;;;;;;;;;5112029;28;1090;-73
2022/02/27 03:33:22;;;;;;;;;;;;;;;;;;5093627;28;1472;-73
2022/02/27 03:35:48;;;;;;;;;;;;;;;;;;5112030;28;917;-73
2022/02/27 03:38:15;;;;;;;;;;;;;;;;;;5112113;28;1123;-72
2022/02/27 03:40:42;;;;;;;;;;;;;;;;;;5104630;28;1973;-73
2022/02/27 03:43:08;;;;;;;;;;;;;;;;;;5091390;28;1308;-73
2022/02/27 03:45:35;;;;;;;;;;;;;;;;;;5091718;28;950;-73
2022/02/27 03:48:01;;;;;;;;;;;;;;;;;;5073412;28;1182;-73
2022/02/27 03:50:28;;;;;;;;;;;;;;;;;;5091079;28;1074;-73
2022/02/27 03:52:54;;;;;;;;;;;;;;;;;;5091252;28;1312;-73
2022/02/27 03:55:20;;;;;;;;;;;;;;;;;;5091432;28;879;-72
2022/02/27 03:57:46;;;;;;;;;;;;;;;;;;5090154;28;1067;-71
2022/02/27 04:00:15;;;;;;;;;;;;;;;;;;5091088;28;1910;-70
2022/02/27 04:02:45;;;;;;;;;;;;;;;;;;5091201;28;1719;-70
2022/02/27 04:05:11;;;;;;;;;;;;;;;;;;5088599;28;1082;-70
2022/02/27 04:07:37;;;;;;;;;;;;;;;;;;5088506;28;786;-71
2022/02/27 04:10:04;;;;;;;;;;;;;;;;;;5090428;28;1488;-71
2022/02/27 04:12:30;;;;;;;;;;;;;;;;;;5099204;28;1411;-71
2022/02/27 04:14:56;;;;;;;;;;;;;;;;;;5108848;28;1393;-70
2022/02/27 04:17:23;;;;;;;;;;;;;;;;;;5105694;28;1452;-71
2022/02/27 04:19:50;;;;;;;;;;;;;;;;;;5088880;28;1075;-70
2022/02/27 04:22:16;;;;;;;;;;;;;;;;;;5072562;28;1922;-71
2022/02/27 04:24:43;;;;;;;;;;;;;;;;;;5102474;28;1519;-71
2022/02/27 04:27:09;;;;;;;;;;;;;;;;;;5089066;28;1460;-70
2022/02/27 04:29:35;;;;;;;;;;;;;;;;;;5108959;28;1063;-70
2022/02/27 04:32:01;;;;;;;;;;;;;;;;;;5109002;28;1523;-71
2022/02/27 04:34:27;;;;;;;;;;;;;;;;;;5089949;28;1512;-71
2022/02/27 04:36:55;;;;;;;;;;;;;;;;;;5088383;28;805;-71
2022/02/27 04:39:21;;;;;;;;;;;;;;;;;;5107350;28;1440;-71
2022/02/27 04:41:47;;;;;;;;;;;;;;;;;;5106310;28;1975;-71
2022/02/27 04:44:13;;;;;;;;;;;;;;;;;;5099864;28;1516;-71
2022/02/27 04:46:40;;;;;;;;;;;;;;;;;;5109117;28;797;-70
2022/02/27 04:49:06;;;;;;;;;;;;;;;;;;5093234;28;1464;-70
2022/02/27 04:51:32;;;;;;;;;;;;;;;;;;5107329;28;1488;-70
2022/02/27 04:54:00;;;;;;;;;;;;;;;;;;5095069;28;1472;-70
2022/02/27 04:56:26;;;;;;;;;;;;;;;;;;5089057;28;1503;-73
2022/02/27 04:58:52;;;;;;;;;;;;;;;;;;5104713;28;1506;-71
2022/02/27 05:01:18;;;;;;;;;;;;;;;;;;5095990;28;1914;-70
2022/02/27 05:03:45;;;;;;;;;;;;;;;;;;5095454;28;1524;-71
2022/02/27 05:06:11;;;;;;;;;;;;;;;;;;5103024;28;1467;-71
2022/02/27 05:08:38;;;;;;;;;;;;;;;;;;5088441;28;1135;-70
2022/02/27 05:11:05;;;;;;;;;;;;;;;;;;5093515;28;1460;-71
2022/02/27 05:13:32;;;;;;;;;;;;;;;;;;5108795;28;1300;-71
2022/02/27 05:15:58;;;;;;;;;;;;;;;;;;5104550;28;1471;-71
2022/02/27 05:18:24;;;;;;;;;;;;;;;;;;5088303;28;908;-71
2022/02/27 05:20:50;;;;;;;;;;;;;;;;;;5101407;28;2058;-71
2022/02/27 05:23:17;;;;;;;;;;;;;;;;;;5108453;28;1354;-69
2022/02/27 05:25:43;;;;;;;;;;;;;;;;;;5096293;28;1460;-70
2022/02/27 05:28:11;;;;;;;;;;;;;;;;;;5070395;28;1270;-71
2022/02/27 05:30:37;;;;;;;;;;;;;;;;;;5097094;28;1543;-71
2022/02/27 05:33:03;;;;;;;;;;;;;;;;;;5091816;28;1486;-71
2022/02/27 05:35:30;;;;;;;;;;;;;;;;;;5078919;28;1456;-71
2022/02/27 05:37:56;;;;;;;;;;;;;;;;;;5095125;28;1476;-71
2022/02/27 05:40:22;;;;;;;;;;;;;;;;;;5095029;28;2351;-71
2022/02/27 05:42:49;;;;;;;;;;;;;;;;;;5108896;22;2547;-68
2022/02/27 05:45:16;;;;;;;;;;;;;;;;;;5065978;28;1415;-69
2022/02/27 05:47:42;;;;;;;;;;;;;;;;;;5069695;28;945;-69
2022/02/27 05:50:09;;;;;;;;;;;;;;;;;;5066525;28;1453;-69
2022/02/27 05:52:35;;;;;;;;;;;;;;;;;;5035524;28;1357;-69
2022/02/27 05:55:02;;;;;;;;;;;;;;;;;;5073915;28;1472;-69
2022/02/27 05:57:28;;;;;;;;;;;;;;;;;;5091480;28;786;-69
2022/02/27 05:59:54;;;;;;;;;;;;;;;;;;5090270;28;1634;-69
2022/02/27 06:02:21;;;;;;;;;;;;;;;;;;5071124;28;1989;-69
2022/02/27 06:04:48;;;;;;;;;;;;;;;;;;5071165;28;1397;-70
2022/02/27 06:07:14;;;;;;;;;;;;;;;;;;5071093;28;1026;-70
2022/02/27 06:09:41;;;;;;;;;;;;;;;;;;5070676;28;1453;-67
2022/02/27 06:12:07;;;;;;;;;;;;;;;;;;5070640;28;869;-69
2022/02/27 06:14:33;;;;;;;;;;;;;;;;;;5070430;28;2080;-69
2022/02/27 06:17:00;;;;;;;;;;;;;;;;;;5070821;28;1094;-70
2022/02/27 06:19:27;;;;;;;;;;;;;;;;;;5069800;28;1589;-68
2022/02/27 06:21:53;;;;;;;;;;;;;;;;;;5070245;28;1906;-69
2022/02/27 06:24:20;;;;;;;;;;;;;;;;;;5070480;28;1538;-69
2022/02/27 06:26:46;;;;;;;;;;;;;;;;;;5070536;28;981;-68
2022/02/27 06:29:12;;;;;;;;;;;;;;;;;;5070400;28;1397;-69
2022/02/27 06:31:38;;;;;;;;;;;;;;;;;;5070243;28;889;-68
2022/02/27 06:34:04;;;;;;;;;;;;;;;;;;5058684;28;1745;-68
2022/02/27 06:36:32;;;;;;;;;;;;;;;;;;5069805;28;1512;-68
2022/02/27 06:38:58;;;;;;;;;;;;;;;;;;5075561;28;1140;-69
2022/02/27 06:41:24;;;;;;;;;;;;;;;;;;5086615;28;1967;-68
2022/02/27 06:43:51;;;;;;;;;;;;;;;;;;5090170;28;1415;-68
2022/02/27 06:46:17;;;;;;;;;;;;;;;;;;5069879;28;1298;-68
2022/02/27 06:48:43;;;;;;;;;;;;;;;;;;5089914;28;1199;-68
2022/02/27 06:51:10;;;;;;;;;;;;;;;;;;5088661;28;1302;-68
2022/02/27 06:53:37;;;;;;;;;;;;;;;;;;5090141;28;1320;-69
2022/02/27 06:56:04;;;;;;;;;;;;;;;;;;5089686;28;1624;-69
2022/02/27 06:58:30;;;;;;;;;;;;;;;;;;5089736;28;1059;-68
2022/02/27 07:00:56;;;;;;;;;;;;;;;;;;5058981;28;1971;-69
2022/02/27 07:03:22;;;;;;;;;;;;;;;;;;5070034;28;1464;-69
2022/02/27 07:05:49;;;;;;;;;;;;;;;;;;5081326;28;1472;-69
2022/02/27 07:08:15;;;;;;;;;;;;;;;;;;5087768;28;1476;-68
2022/02/27 07:10:42;;;;;;;;;;;;;;;;;;5073897;28;1590;-69
2022/02/27 07:13:08;;;;;;;;;;;;;;;;;;5052674;28;1464;-68
2022/02/27 07:15:35;;;;;;;;;;;;;;;;;;5083054;28;1480;-69
2022/02/27 07:18:02;;;;;;;;;;;;;;;;;;5081185;28;1449;-69
2022/02/27 07:20:28;;;;;;;;;;;;;;;;;;5056848;28;1480;-68
2022/02/27 07:22:54;;;;;;;;;;;;;;;;;;5089069;28;1985;-69
2022/02/27 07:25:21;;;;;;;;;;;;;;;;;;5089606;28;1106;-69
2022/02/27 07:27:48;;;;;;;;;;;;;;;;;;5077675;28;1487;-69
2022/02/27 07:30:14;;;;;;;;;;;;;;;;;;5089461;28;730;-69
2022/02/27 07:32:41;;;;;;;;;;;;;;;;;;5071779;28;1484;-69
2022/02/27 07:35:07;;;;;;;;;;;;;;;;;;5080506;28;1477;-69
2022/02/27 07:37:34;;;;;;;;;;;;;;;;;;5091860;28;1318;-69
2022/02/27 07:40:00;;;;;;;;;;;;;;;;;;5103463;28;1362;-69
2022/02/27 07:42:26;;;;;;;;;;;;;;;;;;5086729;28;1914;-69
2022/02/27 07:44:55;;;;;;;;;;;;;;;;;;5089648;28;959;-69
2022/02/27 07:47:21;;;;;;;;;;;;;;;;;;5069733;28;1488;-69
2022/02/27 07:49:47;;;;;;;;;;;;;;;;;;5078221;28;1473;-69
2022/02/27 07:52:14;;;;;;;;;;;;;;;;;;5089299;28;948;-69
2022/02/27 07:54:40;;;;;;;;;;;;;;;;;;5082843;28;1457;-69
2022/02/27 07:57:06;;;;;;;;;;;;;;;;;;5089166;28;1142;-69
2022/02/27 07:59:32;;;;;;;;;;;;;;;;;;5082222;28;1523;-68
2022/02/27 08:02:00;;;;;;;;;;;;;;;;;;5050663;28;1911;-70
2022/02/27 08:04:27;;;;;;;;;;;;;;;;;;5073325;28;1532;-70
2022/02/27 08:06:53;;;;;;;;;;;;;;;;;;5070726;28;1356;-68
2022/02/27 08:09:19;;;;;;;;;;;;;;;;;;5086685;28;1518;-69
2022/02/27 08:11:45;;;;;;;;;;;;;;;;;;5087749;28;913;-69
2022/02/27 08:14:11;;;;;;;;;;;;;;;;;;5087236;28;1477;-69
2022/02/27 08:16:38;;;;;;;;;;;;;;;;;;5077091;28;1511;-69
2022/02/27 08:19:06;;;;;;;;;;;;;;;;;;5088783;28;1141;-69
2022/02/27 08:21:32;;;;;;;;;;;;;;;;;;5087805;28;1979;-70
2022/02/27 08:23:58;;;;;;;;;;;;;;;;;;5088680;28;1340;-70
2022/02/27 08:26:24;;;;;;;;;;;;;;;;;;5088957;28;909;-70
2022/02/27 08:28:51;;;;;;;;;;;;;;;;;;5071395;28;1432;-70
2022/02/27 08:31:17;;;;;;;;;;;;;;;;;;5050356;28;1059;-70
2022/02/27 08:33:43;;;;;;;;;;;;;;;;;;5070885;28;1506;-70
2022/02/27 08:36:15;;;;;;;;;;;;;;;;;;5068184;28;1477;-70
2022/02/27 08:38:41;;;;;;;;;;;;;;;;;;5079283;28;1480;-70
2022/02/27 08:41:07;;;;;;;;;;;;;;;;;;5083874;28;1389;-69
2022/02/27 08:43:33;;;;;;;;;;;;;;;;;;5079221;28;2091;-70
2022/02/27 08:45:59;;;;;;;;;;;;;;;;;;5090258;28;982;-70
2022/02/27 08:48:28;;;;;;;;;;;;;;;;;;5090377;28;1130;-70
2022/02/27 08:50:55;;;;;;;;;;;;;;;;;;5089055;28;1477;-70
2022/02/27 08:53:22;;;;;;;;;;;;;;;;;;5077717;28;1516;-69
2022/02/27 08:55:49;;;;;;;;;;;;;;;;;;5070465;28;1087;-70
2022/02/27 08:58:15;;;;;;;;;;;;;;;;;;5070900;28;1678;-70
2022/02/27 09:00:41;;;;;;;;;;;;;;;;;;5090308;28;923;-69
2022/02/27 09:03:10;;;;;;;;;;;;;;;;;;5087347;28;1981;-70
2022/02/27 09:05:36;;;;;;;;;;;;;;;;;;5075145;28;1382;-71
2022/02/27 09:08:02;;;;;;;;;;;;;;;;;;5088216;28;1520;-70
2022/02/27 09:10:30;;;;;;;;;;;;;;;;;;5090159;28;1149;-71
2022/02/27 09:12:56;;;;;;;;;;;;;;;;;;5090459;28;1408;-69
2022/02/27 09:15:22;;;;;;;;;;;;;;;;;;5090462;28;1250;-70
2022/02/27 09:17:50;;;;;;;;;;;;;;;;;;5089946;28;1082;-71
2022/02/27 09:20:16;;;;;;;;;;;;;;;;;;5090100;28;1213;-71
2022/02/27 09:22:42;;;;;;;;;;;;;;;;;;5092780;28;1970;-71
2022/02/27 09:25:09;;;;;;;;;;;;;;;;;;5093789;28;1159;-71
2022/02/27 09:27:36;;;;;;;;;;;;;;;;;;5093772;28;1254;-70
2022/02/27 09:30:03;;;;;;;;;;;;;;;;;;5093913;28;1312;-71
2022/02/27 09:32:29;;;;;;;;;;;;;;;;;;5094990;28;1478;-70
2022/02/27 09:34:55;;;;;;;;;;;;;;;;;;5094973;28;1234;-69
2022/02/27 09:37:21;;;;;;;;;;;;;;;;;;5096589;28;1270;-69
2022/02/27 09:39:48;;;;;;;;;;;;;;;;;;5075303;28;1677;-71
2022/02/27 09:42:14;;;;;;;;;;;;;;;;;;5090765;28;1985;-70
2022/02/27 09:44:44;;;;;;;;;;;;;;;;;;5075757;28;1282;-71
2022/02/27 09:47:12;;;;;;;;;;;;;;;;;;5093955;28;830;-71
2022/02/27 09:49:39;;;;;;;;;;;;;;;;;;5078320;28;1584;-71
2022/02/27 09:52:06;;;;;;;;;;;;;;;;;;5080759;28;1101;-71
2022/02/27 09:54:33;;;;;;;;;;;;;;;;;;5091889;28;1396;-69
2022/02/27 09:57:00;;;;;;;;;;;;;;;;;;5092230;28;1038;-69
2022/02/27 09:59:26;;;;;;;;;;;;;;;;;;5091571;28;1100;-69
2022/02/27 10:02:01;;;;;;;;;;;;;;;;;;5091393;28;1967;-70
2022/02/27 10:04:31;;;;;;;;;;;;;;;;;;5091130;28;1310;-69
2022/02/27 10:06:58;;;;;;;;;;;;;;;;;;5070718;28;1340;-70
2022/02/27 10:09:24;;;;;;;;;;;;;;;;;;5091854;28;1058;-72
2022/02/27 10:11:50;;;;;;;;;;;;;;;;;;5090831;28;1031;-69
2022/02/27 10:14:24;;;;;;;;;;;;;;;;;;5091293;28;1406;-70
2022/02/27 10:16:50;;;;;;;;;;;;;;;;;;5073505;28;1171;-67
2022/02/27 10:19:19;;;;;;;;;;;;;;;;;;5090833;28;1103;-69
2022/02/27 10:21:46;;;;;;;;;;;;;;;;;;5091372;28;857;-70
2022/02/27 10:24:13;;;;;;;;;;;;;;;;;;5092679;28;1918;-71
2022/02/27 10:26:40;;;;;;;;;;;;;;;;;;5074096;28;1282;-70
2022/02/27 10:29:07;;;;;;;;;;;;;;;;;;5091159;28;866;-69
2022/02/27 10:31:33;;;;;;;;;;;;;;;;;;5091134;28;1019;-71
2022/02/27 10:34:11;;;;;;;;;;;;;;;;;;5090276;28;1337;-70
2022/02/27 10:36:38;;;;;;;;;;;;;;;;;;5091040;28;1071;-71
2022/02/27 10:39:05;;;;;;;;;;;;;;;;;;5072744;28;1127;-70
2022/02/27 10:41:36;;;;;;;;;;;;;;;;;;5090516;28;1086;-70
2022/02/27 10:44:02;;;;;;;;;;;;;;;;;;5090465;28;1914;-70
2022/02/27 10:46:32;;;;;;;;;;;;;;;;;;5090662;28;1134;-70
2022/02/27 10:48:59;;;;;;;;;;;;;;;;;;5069577;28;1338;-70
2022/02/27 10:51:25;;;;;;;;;;;;;;;;;;5079613;28;1495;-70
2022/02/27 10:53:52;;;;;;;;;;;;;;;;;;5070211;28;1484;-70
2022/02/27 10:56:18;;;;;;;;;;;;;;;;;;5083637;28;1524;-71
2022/02/27 10:58:45;;;;;;;;;;;;;;;;;;5071159;28;1155;-70
2022/02/27 11:01:16;;;;;;;;;;;;;;;;;;5078252;28;1501;-70
2022/02/27 11:03:43;;;;;;;;;;;;;;;;;;5068511;28;1925;-69
2022/02/27 11:06:09;;;;;;;;;;;;;;;;;;5069823;28;1505;-69
2022/02/27 11:08:35;;;;;;;;;;;;;;;;;;5052171;28;1153;-69
2022/02/27 11:11:03;;;;;;;;;;;;;;;;;;5069397;28;1465;-70
2022/02/27 11:13:29;;;;;;;;;;;;;;;;;;5069820;28;1373;-70
2022/02/27 11:15:56;;;;;;;;;;;;;;;;;;5069768;28;1465;-71
2022/02/27 11:18:22;;;;;;;;;;;;;;;;;;5069737;28;1063;-71
2022/02/27 11:20:48;;;;;;;;;;;;;;;;;;5051285;28;1504;-69
2022/02/27 11:23:14;;;;;;;;;;;;;;;;;;5061453;28;1981;-71
2022/02/27 11:25:41;;;;;;;;;;;;;;;;;;5082486;28;1687;-70
2022/02/27 11:28:09;;;;;;;;;;;;;;;;;;5089982;28;1071;-68
2022/02/27 11:30:36;;;;;;;;;;;;;;;;;;5076587;28;1547;-71
2022/02/27 11:33:07;;;;;;;;;;;;;;;;;;5069746;28;1266;-70
2022/02/27 11:35:34;;;;;;;;;;;;;;;;;;5084234;28;1503;-71
2022/02/27 11:38:00;;;;;;;;;;;;;;;;;;5089869;28;921;-70
2022/02/27 11:40:29;;;;;;;;;;;;;;;;;;5075477;28;1527;-70
2022/02/27 11:42:55;;;;;;;;;;;;;;;;;;5069366;28;1910;-70
2022/02/27 11:45:29;;;;;;;;;;;;;;;;;;5101095;22;3685;-73
2022/02/27 11:47:57;;;;;;;;;;;;;;;;;;5087146;28;1286;-73
2022/02/27 11:50:25;;;;;;;;;;;;;;;;;;5067330;28;1266;-74
2022/02/27 11:52:51;;;;;;;;;;;;;;;;;;5071131;28;1229;-73
2022/02/27 11:55:32;;;;;;;;;;;;;;;;;;5091431;28;1452;-74
2022/02/27 11:57:59;;;;;;;;;;;;;;;;;;5108655;28;1288;-74
2022/02/27 12:00:30;;;;;;;;;;;;;;;;;;5095795;28;1456;-74
2022/02/27 12:02:56;;;;;;;;;;;;;;;;;;5070134;28;1906;-73
2022/02/27 12:05:41;;;;;;;;;;;;;;;;;;5093559;28;1480;-73
2022/02/27 12:08:10;;;;;;;;;;;;;;;;;;5095547;28;1293;-73
2022/02/27 12:10:38;;;;;;;;;;;;;;;;;;5089621;28;1263;-72
2022/02/27 12:13:05;;;;;;;;;;;;;;;;;;5091191;28;1159;-73
2022/02/27 12:15:34;;;;;;;;;;;;;;;;;;5109005;28;1435;-73
2022/02/27 12:18:02;;;;;;;;;;;;;;;;;;5109711;28;1090;-73
2022/02/27 12:20:45;;;;;;;;;;;;;;;;;;5109060;28;1071;-73
2022/02/27 12:23:12;;;;;;;;;;;;;;;;;;5091092;28;1972;-73
2022/02/27 12:25:38;;;;;;;;;;;;;;;;;;5075353;28;1472;-72
2022/02/27 12:28:05;;;;;;;;;;;;;;;;;;5088812;28;1123;-73
2022/02/27 12:30:33;;;;;;;;;;;;;;;;;;5089160;28;1476;-72
2022/02/27 12:33:06;;;;;;;;;;;;;;;;;;5090151;28;1392;-73
2022/02/27 12:35:32;;;;;;;;;;;;;;;;;;5089691;28;1515;-73
2022/02/27 12:38:01;;;;;;;;;;;;;;;;;;5089399;28;1515;-73
2022/02/27 12:40:27;;;;;;;;;;;;;;;;;;5088675;28;761;-73
2022/02/27 12:42:59;;;;;;;;;;;;;;;;;;5088617;28;1910;-73
2022/02/27 12:45:28;;;;;;;;;;;;;;;;;;5070376;28;1385;-73
2022/02/27 12:47:57;;;;;;;;;;;;;;;;;;5070770;28;1196;-73
2022/02/27 12:50:28;;;;;;;;;;;;;;;;;;5085652;28;1398;-72
2022/02/27 12:52:56;;;;;;;;;;;;;;;;;;5088871;28;880;-72
2022/02/27 12:55:23;;;;;;;;;;;;;;;;;;5088486;28;1376;-74
2022/02/27 12:57:50;;;;;;;;;;;;;;;;;;5073286;28;853;-73
2022/02/27 13:00:17;;;;;;;;;;;;;;;;;;5093480;28;1389;-71
2022/02/27 13:02:44;;;;;;;;;;;;;;;;;;5103991;28;1980;-73
2022/02/27 13:05:13;;;;;;;;;;;;;;;;;;5093258;28;1316;-73
2022/02/27 13:07:39;;;;;;;;;;;;;;;;;;5096474;28;1563;-73
2022/02/27 13:10:06;;;;;;;;;;;;;;;;;;5114364;28;1137;-73
2022/02/27 13:12:33;;;;;;;;;;;;;;;;;;5111456;28;1483;-72
2022/02/27 13:14:59;;;;;;;;;;;;;;;;;;5092542;28;1339;-73
2022/02/27 13:17:26;;;;;;;;;;;;;;;;;;5092835;28;1425;-73
2022/02/27 13:19:53;;;;;;;;;;;;;;;;;;5092162;28;705;-73
2022/02/27 13:22:27;;;;;;;;;;;;;;;;;;5101849;28;1456;-73
2022/02/27 13:24:55;;;;;;;;;;;;;;;;;;5092277;28;1937;-73
2022/02/27 13:27:24;;;;;;;;;;;;;;;;;;5104791;28;1539;-73
2022/02/27 13:29:51;;;;;;;;;;;;;;;;;;5111660;28;1535;-73
2022/02/27 13:32:18;;;;;;;;;;;;;;;;;;5114517;28;1112;-73
2022/02/27 13:34:44;;;;;;;;;;;;;;;;;;5096364;28;1348;-73
2022/02/27 13:37:10;;;;;;;;;;;;;;;;;;5114592;28;1015;-73
2022/02/27 13:39:38;;;;;;;;;;;;;;;;;;5114186;28;1240;-72
2022/02/27 13:42:05;;;;;;;;;;;;;;;;;;5096039;28;1113;-72
2022/02/27 13:44:31;;;;;;;;;;;;;;;;;;5110938;28;1979;-73
2022/02/27 13:46:57;;;;;;;;;;;;;;;;;;5114454;28;1078;-73
2022/02/27 13:49:23;;;;;;;;;;;;;;;;;;5114357;28;1082;-73
2022/02/27 13:51:50;;;;;;;;;;;;;;;;;;5113808;28;1126;-73
2022/02/27 13:54:19;;;;;;;;;;;;;;;;;;5114212;28;1409;-73
2022/02/27 13:57:06;;;;;;;;;;;;;;;;;;5114206;28;1067;-73
2022/02/27 13:59:40;;;;;;;;;;;;;;;;;;5113919;28;1118;-73
2022/02/27 14:02:06;;;;;;;;;;;;;;;;;;5095980;28;1164;-72
2022/02/27 14:04:32;;;;;;;;;;;;;;;;;;5108886;28;1910;-73
2022/02/27 14:06:58;;;;;;;;;;;;;;;;;;5094845;28;1552;-72
2022/02/27 14:09:25;;;;;;;;;;;;;;;;;;5102675;28;1499;-72
2022/02/27 14:12:01;;;;;;;;;;;;;;;;;;5090801;28;734;-71
2022/02/27 14:14:29;;;;;;;;;;;;;;;;;;5090596;28;1448;-72
2022/02/27 14:16:56;;;;;;;;;;;;;;;;;;5111745;28;1191;-72
2022/02/27 14:19:24;;;;;;;;;;;;;;;;;;5103626;28;1744;-72
2022/02/27 14:21:50;;;;;;;;;;;;;;;;;;5091051;28;849;-71
2022/02/27 14:24:17;;;;;;;;;;;;;;;;;;5090923;28;1921;-72
2022/02/27 14:26:43;;;;;;;;;;;;;;;;;;5106716;28;1575;-72
2022/02/27 14:29:11;;;;;;;;;;;;;;;;;;5109061;28;1389;-73
2022/02/27 14:31:39;;;;;;;;;;;;;;;;;;5087021;28;1503;-73
2022/02/27 14:34:06;;;;;;;;;;;;;;;;;;5101734;28;1460;-73
2022/02/27 14:36:33;;;;;;;;;;;;;;;;;;5092463;28;1491;-72
2022/02/27 14:38:59;;;;;;;;;;;;;;;;;;5093646;28;1476;-72
2022/02/27 14:41:26;;;;;;;;;;;;;;;;;;5105440;28;1551;-72
2022/02/27 14:43:53;;;;;;;;;;;;;;;;;;5110328;28;2301;-70
2022/02/27 14:46:19;;;;;;;;;;;;;;;;;;5103204;28;1879;-72
2022/02/27 14:48:46;;;;;;;;;;;;;;;;;;5100165;28;1350;-72
2022/02/27 14:51:13;;;;;;;;;;;;;;;;;;5091159;28;1228;-72
2022/02/27 14:53:40;;;;;;;;;;;;;;;;;;5110018;28;1570;-72
2022/02/27 14:56:06;;;;;;;;;;;;;;;;;;5103086;28;1539;-72
2022/02/27 14:58:33;;;;;;;;;;;;;;;;;;5093921;28;1477;-72
2022/02/27 15:00:59;;;;;;;;;;;;;;;;;;5099864;28;1587;-72
2022/02/27 15:03:26;;;;;;;;;;;;;;;;;;5096859;28;1918;-72
2022/02/27 15:05:54;;;;;;;;;;;;;;;;;;5099292;28;1661;-71
2022/02/27 15:08:20;;;;;;;;;;;;;;;;;;5105692;28;1440;-71
2022/02/27 15:10:47;;;;;;;;;;;;;;;;;;5093007;28;1496;-72
2022/02/27 15:13:13;;;;;;;;;;;;;;;;;;5099419;28;1496;-72
2022/02/27 15:15:40;;;;;;;;;;;;;;;;;;5100500;28;1516;-72
2022/02/27 15:18:06;;;;;;;;;;;;;;;;;;5102210;28;1712;-72
2022/02/27 15:20:32;;;;;;;;;;;;;;;;;;5096474;28;1524;-72
2022/02/27 15:23:01;;;;;;;;;;;;;;;;;;5106311;28;1503;-71
2022/02/27 15:25:28;;;;;;;;;;;;;;;;;;5089436;28;1913;-72
2022/02/27 15:27:54;;;;;;;;;;;;;;;;;;5093231;28;1440;-72
2022/02/27 15:30:20;;;;;;;;;;;;;;;;;;5103833;28;1539;-72
2022/02/27 15:32:46;;;;;;;;;;;;;;;;;;5105013;28;1484;-72
2022/02/27 15:35:14;;;;;;;;;;;;;;;;;;5089787;28;1480;-73
2022/02/27 15:37:40;;;;;;;;;;;;;;;;;;5092974;28;1531;-72
2022/02/27 15:40:08;;;;;;;;;;;;;;;;;;5105857;28;1430;-72
2022/02/27 15:42:34;;;;;;;;;;;;;;;;;;5108102;28;1452;-71
2022/02/27 15:45:00;;;;;;;;;;;;;;;;;;5099270;28;1902;-73
2022/02/27 15:47:30;;;;;;;;;;;;;;;;;;5089994;28;1481;-72
2022/02/27 15:49:57;;;;;;;;;;;;;;;;;;5109079;28;1496;-72
2022/02/27 15:52:23;;;;;;;;;;;;;;;;;;5099513;28;1480;-72
2022/02/27 15:54:49;;;;;;;;;;;;;;;;;;5106648;28;1383;-73
2022/02/27 15:57:17;;;;;;;;;;;;;;;;;;5105628;28;1322;-72
2022/02/27 15:59:43;;;;;;;;;;;;;;;;;;5088718;28;1071;-71
2022/02/27 16:02:09;;;;;;;;;;;;;;;;;;5089630;28;1529;-71
2022/02/27 16:04:36;;;;;;;;;;;;;;;;;;5088865;28;1973;-72
2022/02/27 16:07:02;;;;;;;;;;;;;;;;;;5099136;28;1483;-72
2022/02/27 16:09:28;;;;;;;;;;;;;;;;;;5083773;28;1492;-70
2022/02/27 16:11:55;;;;;;;;;;;;;;;;;;5096182;28;1465;-74
2022/02/27 16:14:23;;;;;;;;;;;;;;;;;;5088862;28;1523;-71
2022/02/27 16:16:53;;;;;;;;;;;;;;;;;;5093786;28;1547;-71
2022/02/27 16:19:19;;;;;;;;;;;;;;;;;;5109516;28;778;-72
2022/02/27 16:21:45;;;;;;;;;;;;;;;;;;5109166;28;1082;-72
2022/02/27 16:24:12;;;;;;;;;;;;;;;;;;5108169;28;1922;-72
2022/02/27 16:26:38;;;;;;;;;;;;;;;;;;5108965;28;1500;-72
2022/02/27 16:29:05;;;;;;;;;;;;;;;;;;5108055;28;1460;-71
2022/02/27 16:31:32;;;;;;;;;;;;;;;;;;5089987;28;1524;-74
2022/02/27 16:33:59;;;;;;;;;;;;;;;;;;5084992;28;1543;-72
2022/02/27 16:36:26;;;;;;;;;;;;;;;;;;5107710;28;1357;-72
2022/02/27 16:38:52;;;;;;;;;;;;;;;;;;5108861;28;1464;-72
2022/02/27 16:41:18;;;;;;;;;;;;;;;;;;5100510;28;1546;-72
2022/02/27 16:43:46;;;;;;;;;;;;;;;;;;5095056;28;2053;-71
2022/02/27 16:46:14;;;;;;;;;;;;;;;;;;5104753;28;1910;-72
2022/02/27 16:48:42;;;;;;;;;;;;;;;;;;5071082;28;1527;-73
2022/02/27 16:51:08;;;;;;;;;;;;;;;;;;5108308;28;1480;-73
2022/02/27 16:53:34;;;;;;;;;;;;;;;;;;5106879;28;1467;-72
2022/02/27 16:56:00;;;;;;;;;;;;;;;;;;5090277;28;1464;-72
2022/02/27 16:58:27;;;;;;;;;;;;;;;;;;5098743;28;1512;-72
2022/02/27 17:00:54;;;;;;;;;;;;;;;;;;5070137;28;1524;-72
2022/02/27 17:03:20;;;;;;;;;;;;;;;;;;5090034;28;2013;-72